Time;durP1;ratioP1;P1;durP2;ratioP2;P2;SDS_P1;SDS_P2;PMS_P1;PMS_P2;Temp;Humidity;BMP_temperature;BMP_pressure;BME280_temperature;BME280_humidity;BME280_pressure;Samples;Min_cycle;Max_cycle;Signal;HPM_P1;HPM_P2
2021/08/25 00:00:23;;;;;;;16.60;14.90;;;13.30;99.90;;;;;;5100870;28;20525;-67
2021/08/25 00:02:51;;;;;;;18.57;16.60;;;13.20;99.90;;;;;;5107735;28;21090;-67
2021/08/25 00:05:18;;;;;;;16.50;14.60;;;13.10;99.90;;;;;;5107464;28;20440;-67
2021/08/25 00:07:44;;;;;;;20.33;15.67;;;13.00;99.90;;;;;;5107657;28;20821;-68
2021/08/25 00:10:11;;;;;;;18.17;16.27;;;12.90;99.90;;;;;;5107135;28;20445;-66
2021/08/25 00:12:39;;;;;;;18.40;16.23;;;12.90;99.90;;;;;;5097860;28;21374;-68
2021/08/25 00:15:07;;;;;;;18.03;16.13;;;12.80;99.90;;;;;;5095613;28;20452;-67
2021/08/25 00:17:34;;;;;;;18.53;16.53;;;12.80;99.90;;;;;;5100785;28;20446;-68
2021/08/25 00:20:02;;;;;;;16.97;14.03;;;12.80;99.90;;;;;;5106727;28;20457;-68
2021/08/25 00:22:29;;;;;;;17.17;15.33;;;12.80;99.90;;;;;;5086546;28;20462;-67
2021/08/25 00:24:58;;;;;;;16.97;15.17;;;12.80;99.90;;;;;;5095112;28;20847;-68
2021/08/25 00:27:25;;;;;;;16.90;15.20;;;12.80;99.90;;;;;;5097959;28;20465;-68
2021/08/25 00:29:51;;;;;;;17.17;14.10;;;12.90;99.90;;;;;;5088903;28;20442;-68
2021/08/25 00:32:18;;;;;;;16.90;15.10;;;13.00;99.90;;;;;;5095392;28;20489;-70
2021/08/25 00:34:45;;;;;;;15.87;14.27;;;13.10;99.90;;;;;;5106623;28;20441;-68
2021/08/25 00:37:13;;;;;;;16.93;14.00;;;13.20;99.90;;;;;;5087403;28;20453;-67
2021/08/25 00:39:40;;;;;;;16.43;14.73;;;13.20;99.90;;;;;;5100003;28;20453;-67
2021/08/25 00:42:07;;;;;;;16.50;14.80;;;13.20;99.90;;;;;;5093533;28;20915;-67
2021/08/25 00:44:34;;;;;;;15.50;13.70;;;13.20;99.90;;;;;;5094242;28;20935;-68
2021/08/25 00:47:01;;;;;;;14.33;12.83;;;13.20;99.90;;;;;;5088046;28;20454;-68
2021/08/25 00:49:27;;;;;;;16.83;15.13;;;13.30;99.90;;;;;;5088866;28;20843;-68
2021/08/25 00:51:54;;;;;;;15.87;14.27;;;13.30;99.90;;;;;;5109852;28;20485;-68
2021/08/25 00:54:23;;;;;;;15.90;13.47;;;13.30;99.90;;;;;;5109693;28;20544;-67
2021/08/25 00:56:52;;;;;;;16.50;14.33;;;13.30;99.90;;;;;;5110365;28;20446;-68
2021/08/25 00:59:19;;;;;;;16.77;14.57;;;13.20;99.90;;;;;;5109655;28;20434;-67
2021/08/25 01:02:01;;;;;;;16.33;14.27;;;13.10;99.90;;;;;;5110012;28;20469;-68
2021/08/25 01:04:33;;;;;;;16.73;15.03;;;13.00;99.90;;;;;;5109866;28;20520;-68
2021/08/25 01:07:00;;;;;;;15.87;14.23;;;12.90;99.90;;;;;;5110430;28;20516;-68
2021/08/25 01:09:28;;;;;;;15.83;14.23;;;12.90;99.90;;;;;;5109338;28;20442;-68
2021/08/25 01:11:59;;;;;;;13.87;12.50;;;13.00;99.90;;;;;;5110005;28;20837;-67
2021/08/25 01:14:27;;;;;;;16.13;14.43;;;13.00;99.90;;;;;;5109582;28;20816;-68
2021/08/25 01:16:55;;;;;;;21.80;14.40;;;13.00;99.90;;;;;;5109569;28;20835;-68
2021/08/25 01:19:25;;;;;;;15.23;13.63;;;13.00;99.90;;;;;;5108873;28;20975;-68
2021/08/25 01:21:53;;;;;;;16.93;13.30;;;12.90;99.90;;;;;;5109945;28;20568;-68
2021/08/25 01:24:21;;;;;;;16.43;14.80;;;12.80;99.90;;;;;;5110026;28;20463;-68
2021/08/25 01:26:53;;;;;;;17.43;15.53;;;12.60;99.90;;;;;;5109956;28;20452;-69
2021/08/25 01:29:26;;;;;;;16.97;15.17;;;12.40;99.90;;;;;;5109644;28;20429;-67
2021/08/25 01:31:53;;;;;;;16.50;14.70;;;12.50;99.90;;;;;;5110153;28;20912;-69
2021/08/25 01:34:20;;;;;;;17.97;16.23;;;12.40;99.90;;;;;;5109873;28;20532;-68
2021/08/25 01:36:50;;;;;;;16.23;14.53;;;12.40;99.90;;;;;;5110297;28;20865;-68
2021/08/25 01:39:16;;;;;;;17.50;15.70;;;12.30;99.90;;;;;;5109031;28;20445;-68
2021/08/25 01:41:43;;;;;;;17.70;14.70;;;12.20;99.90;;;;;;5109941;28;20842;-68
2021/08/25 01:44:11;;;;;;;18.90;17.00;;;12.10;99.90;;;;;;5108989;28;20445;-68
2021/08/25 01:46:41;;;;;;;16.60;14.47;;;12.00;99.90;;;;;;5109759;28;20479;-67
2021/08/25 01:49:09;;;;;;;19.07;16.97;;;11.90;99.90;;;;;;5109034;28;20851;-68
2021/08/25 01:51:38;;;;;;;19.83;16.87;;;11.70;99.90;;;;;;5112381;28;20484;-67
2021/08/25 01:54:05;;;;;;;20.73;16.70;;;11.80;99.90;;;;;;5113491;28;20451;-68
2021/08/25 01:56:32;;;;;;;24.57;18.27;;;12.00;99.90;;;;;;5113323;28;20855;-68
2021/08/25 01:59:01;;;;;;;21.53;18.30;;;12.00;99.90;;;;;;5113042;28;20440;-67
2021/08/25 02:01:30;;;;;;;18.50;16.33;;;11.90;99.90;;;;;;5113370;28;20986;-69
2021/08/25 02:04:01;;;;;;;19.47;17.40;;;11.90;99.90;;;;;;5113465;28;20455;-68
2021/08/25 02:06:28;;;;;;;17.57;15.67;;;11.90;99.90;;;;;;5113098;28;20507;-69
2021/08/25 02:08:56;;;;;;;18.10;16.10;;;11.90;99.90;;;;;;5112976;28;20523;-69
2021/08/25 02:11:23;;;;;;;19.47;17.27;;;11.80;99.90;;;;;;5111880;28;20500;-68
2021/08/25 02:13:49;;;;;;;20.93;18.10;;;11.70;99.90;;;;;;5113316;28;20531;-67
2021/08/25 02:16:16;;;;;;;20.47;18.30;;;11.50;99.90;;;;;;5113164;28;20459;-69
2021/08/25 02:18:43;;;;;;;20.63;18.47;;;11.50;99.90;;;;;;5113157;28;20557;-68
2021/08/25 02:21:12;;;;;;;20.77;17.70;;;11.40;99.90;;;;;;5111978;28;20465;-68
2021/08/25 02:23:39;;;;;;;19.80;16.77;;;11.40;99.90;;;;;;5113204;28;20878;-68
2021/08/25 02:26:06;;;;;;;20.87;17.37;;;11.40;99.90;;;;;;5112479;28;20445;-68
2021/08/25 02:28:33;;;;;;;20.83;17.00;;;11.40;99.90;;;;;;5112954;28;20956;-69
2021/08/25 02:31:02;;;;;;;24.03;18.13;;;11.40;99.90;;;;;;5112126;28;20493;-69
2021/08/25 02:33:29;;;;;;;23.10;18.90;;;11.40;99.90;;;;;;5112464;28;20558;-69
2021/08/25 02:35:56;;;;;;;25.97;20.53;;;11.50;99.90;;;;;;5112500;28;20536;-68
2021/08/25 02:38:24;;;;;;;20.87;18.57;;;11.60;99.90;;;;;;5112850;28;20469;-71
2021/08/25 02:40:51;;;;;;;21.43;19.30;;;11.60;99.90;;;;;;5111717;28;20451;-68
2021/08/25 02:43:18;;;;;;;23.07;18.47;;;11.60;99.90;;;;;;5112933;28;20463;-68
2021/08/25 02:45:45;;;;;;;25.90;20.30;;;11.60;99.90;;;;;;5112159;28;20448;-69
2021/08/25 02:48:11;;;;;;;22.70;18.33;;;11.60;99.90;;;;;;5112523;28;20449;-67
2021/08/25 02:50:38;;;;;;;23.17;20.07;;;11.60;99.90;;;;;;5111930;28;20532;-67
2021/08/25 02:53:05;;;;;;;23.03;20.07;;;11.60;99.90;;;;;;5112264;28;20564;-68
2021/08/25 02:55:33;;;;;;;23.17;19.40;;;11.50;99.90;;;;;;5112238;28;20539;-68
2021/08/25 02:58:00;;;;;;;25.80;20.30;;;11.50;99.90;;;;;;5112499;28;20445;-68
2021/08/25 03:00:27;;;;;;;18.43;16.50;;;11.50;99.90;;;;;;5111525;28;20451;-68
2021/08/25 03:02:54;;;;;;;20.10;17.67;;;11.50;99.90;;;;;;5111166;28;20462;-68
2021/08/25 03:05:21;;;;;;;22.60;19.20;;;11.40;99.90;;;;;;5112033;28;20450;-68
2021/08/25 03:07:48;;;;;;;22.60;19.67;;;11.40;99.90;;;;;;5112323;28;20441;-68
2021/08/25 03:10:15;;;;;;;19.53;16.00;;;11.30;99.90;;;;;;5111422;28;20451;-67
2021/08/25 03:12:43;;;;;;;19.83;16.60;;;11.30;99.90;;;;;;5112418;28;20485;-69
2021/08/25 03:15:11;;;;;;;19.80;17.03;;;11.20;99.90;;;;;;5111555;28;20442;-68
2021/08/25 03:17:38;;;;;;;21.97;17.57;;;11.20;99.90;;;;;;5112361;28;20445;-68
2021/08/25 03:20:08;;;;;;;24.53;19.90;;;11.10;99.90;;;;;;5111335;28;20551;-67
2021/08/25 03:22:35;;;;;;;18.80;16.60;;;11.10;99.90;;;;;;5111907;28;21005;-69
2021/08/25 03:25:02;;;;;;;20.20;16.97;;;11.10;99.90;;;;;;5111630;28;20455;-68
2021/08/25 03:27:29;;;;;;;19.67;16.90;;;11.10;99.90;;;;;;5111582;28;20449;-68
2021/08/25 03:29:57;;;;;;;22.80;17.53;;;11.00;99.90;;;;;;5110628;28;20445;-67
2021/08/25 03:32:24;;;;;;;27.63;21.30;;;11.00;99.90;;;;;;5111393;28;20571;-67
2021/08/25 03:34:52;;;;;;;21.53;18.13;;;11.10;99.90;;;;;;5111215;28;21049;-68
2021/08/25 03:37:19;;;;;;;21.77;19.20;;;11.30;99.90;;;;;;5111485;28;20449;-67
2021/08/25 03:39:46;;;;;;;22.77;16.60;;;11.30;99.90;;;;;;5110721;28;21035;-67
2021/08/25 03:42:13;;;;;;;21.30;16.63;;;11.20;99.90;;;;;;5111173;27;20457;-68
2021/08/25 03:44:41;;;;;;;23.43;18.40;;;11.20;99.90;;;;;;5110795;28;20540;-68
2021/08/25 03:47:09;;;;;;;20.53;17.53;;;11.10;99.90;;;;;;5111749;28;20476;-68
2021/08/25 03:49:37;;;;;;;21.43;18.57;;;11.10;99.90;;;;;;5110340;28;20520;-68
2021/08/25 03:52:05;;;;;;;28.33;17.93;;;11.00;99.90;;;;;;5111415;28;20548;-67
2021/08/25 03:54:32;;;;;;;24.47;18.70;;;11.00;99.90;;;;;;5110713;28;20445;-67
2021/08/25 03:56:59;;;;;;;22.90;18.03;;;10.90;99.90;;;;;;5111149;28;20537;-69
2021/08/25 03:59:25;;;;;;;23.97;19.03;;;10.90;99.90;;;;;;5110296;28;20477;-68
2021/08/25 04:01:52;;;;;;;22.47;18.37;;;10.90;99.90;;;;;;5111138;28;20457;-67
2021/08/25 04:04:20;;;;;;;19.60;16.97;;;10.90;99.90;;;;;;5110350;28;20441;-68
2021/08/25 04:06:47;;;;;;;19.63;17.33;;;10.90;99.90;;;;;;5110996;28;20453;-68
2021/08/25 04:09:14;;;;;;;19.93;15.37;;;10.90;99.90;;;;;;5110121;28;20532;-68
2021/08/25 04:11:41;;;;;;;21.70;18.47;;;10.80;99.90;;;;;;5110427;28;20834;-68
2021/08/25 04:14:08;;;;;;;21.67;18.33;;;10.80;99.90;;;;;;5110796;28;20909;-68
2021/08/25 04:16:35;;;;;;;23.30;19.43;;;10.70;99.90;;;;;;5110392;28;20528;-68
2021/08/25 04:19:01;;;;;;;25.80;18.57;;;10.70;99.90;;;;;;5109800;28;20548;-68
2021/08/25 04:21:30;;;;;;;24.00;21.17;;;10.60;99.90;;;;;;5110473;28;20548;-66
2021/08/25 04:23:57;;;;;;;25.93;19.30;;;10.60;99.90;;;;;;5109947;28;20445;-66
2021/08/25 04:26:24;;;;;;;22.70;19.73;;;10.60;99.90;;;;;;5110117;28;20445;-67
2021/08/25 04:28:50;;;;;;;23.23;19.20;;;10.60;99.90;;;;;;5110432;28;20803;-67
2021/08/25 04:31:17;;;;;;;24.17;20.53;;;10.50;99.90;;;;;;5110047;28;20465;-67
2021/08/25 04:33:44;;;;;;;26.47;19.37;;;10.50;99.90;;;;;;5110490;28;20481;-67
2021/08/25 04:36:12;;;;;;;26.10;20.23;;;10.50;99.90;;;;;;5109782;28;21065;-67
2021/08/25 04:38:40;;;;;;;26.50;21.20;;;10.60;99.90;;;;;;5110239;28;20447;-67
2021/08/25 04:41:10;;;;;;;21.13;18.20;;;10.60;99.90;;;;;;5109771;28;20469;-66
2021/08/25 04:43:37;;;;;;;23.70;19.40;;;10.70;99.90;;;;;;5110649;28;20441;-67
2021/08/25 04:46:04;;;;;;;26.63;21.50;;;10.60;99.90;;;;;;5109713;28;20540;-67
2021/08/25 04:48:31;;;;;;;24.97;20.30;;;10.60;99.90;;;;;;5110365;28;20543;-69
2021/08/25 04:50:58;;;;;;;25.20;21.00;;;10.60;99.90;;;;;;5109138;28;20465;-67
2021/08/25 04:53:24;;;;;;;31.27;22.63;;;10.60;99.90;;;;;;5110177;28;20477;-67
2021/08/25 04:55:53;;;;;;;26.30;20.47;;;10.60;99.90;;;;;;5109800;28;20548;-67
2021/08/25 04:58:19;;;;;;;23.33;19.73;;;10.70;99.90;;;;;;5110389;28;20849;-66
2021/08/25 05:00:48;;;;;;;23.50;18.10;;;10.70;99.90;;;;;;5109511;28;20453;-67
2021/08/25 05:03:15;;;;;;;25.67;21.07;;;10.80;99.90;;;;;;5109501;28;20966;-67
2021/08/25 05:05:42;;;;;;;22.93;19.40;;;10.70;99.90;;;;;;5109408;28;20536;-67
2021/08/25 05:08:09;;;;;;;23.10;20.17;;;10.70;99.90;;;;;;5109819;28;20491;-66
2021/08/25 05:10:36;;;;;;;26.30;21.67;;;10.70;99.90;;;;;;5109061;28;20441;-66
2021/08/25 05:13:04;;;;;;;26.30;21.20;;;10.80;99.90;;;;;;5110181;28;20483;-67
2021/08/25 05:15:31;;;;;;;27.03;20.50;;;10.80;99.90;;;;;;5109926;28;20473;-68
2021/08/25 05:17:58;;;;;;;28.77;21.27;;;10.90;99.90;;;;;;5109891;28;20547;-68
2021/08/25 05:20:25;;;;;;;30.80;23.20;;;10.90;99.90;;;;;;5108774;28;20461;-68
2021/08/25 05:22:52;;;;;;;26.53;21.20;;;10.90;99.90;;;;;;5109403;28;20967;-68
2021/08/25 05:25:19;;;;;;;24.77;18.97;;;10.90;99.90;;;;;;5109922;28;20484;-68
2021/08/25 05:27:45;;;;;;;25.60;22.23;;;10.90;99.90;;;;;;5114069;28;20441;-68
2021/08/25 05:30:14;;;;;;;27.27;20.53;;;11.00;99.90;;;;;;5112968;28;20826;-67
2021/08/25 05:32:41;;;;;;;26.70;19.93;;;11.10;99.90;;;;;;5113353;28;21032;-67
2021/08/25 05:35:09;;;;;;;22.93;19.97;;;11.20;99.90;;;;;;5113274;28;20453;-67
2021/08/25 05:37:36;;;;;;;19.83;17.60;;;11.20;99.90;;;;;;5113930;28;20451;-67
2021/08/25 05:40:04;;;;;;;23.97;18.90;;;11.30;99.90;;;;;;5113158;28;20470;-67
2021/08/25 05:42:31;;;;;;;23.23;20.10;;;11.40;99.90;;;;;;5113786;28;20461;-68
2021/08/25 05:44:57;;;;;;;30.13;21.40;;;11.40;99.90;;;;;;5113280;28;20533;-68
2021/08/25 05:47:26;;;;;;;24.43;19.90;;;11.50;99.90;;;;;;5113073;28;20540;-67
2021/08/25 05:49:53;;;;;;;23.17;20.10;;;11.60;99.90;;;;;;5112972;28;20459;-67
2021/08/25 05:52:19;;;;;;;22.07;19.67;;;11.70;99.90;;;;;;5113576;28;20474;-67
2021/08/25 05:54:46;;;;;;;22.87;18.97;;;11.70;99.90;;;;;;5113177;28;20484;-68
2021/08/25 05:57:13;;;;;;;20.70;18.50;;;11.80;99.90;;;;;;5113647;28;20509;-68
2021/08/25 05:59:40;;;;;;;24.60;19.50;;;11.80;99.90;;;;;;5112475;28;20976;-67
2021/08/25 06:02:07;;;;;;;21.83;19.43;;;11.90;99.90;;;;;;5112941;28;20469;-68
2021/08/25 06:04:35;;;;;;;19.07;17.03;;;12.00;99.90;;;;;;5113060;28;20448;-69
2021/08/25 06:07:02;;;;;;;20.87;18.33;;;12.10;99.90;;;;;;5113240;28;20457;-69
2021/08/25 06:09:29;;;;;;;20.60;18.33;;;12.10;99.90;;;;;;5112550;28;20880;-68
2021/08/25 06:11:56;;;;;;;22.10;18.50;;;12.20;99.90;;;;;;5113417;28;21105;-69
2021/08/25 06:14:22;;;;;;;21.40;19.10;;;12.20;99.90;;;;;;5112248;28;20476;-69
2021/08/25 06:16:49;;;;;;;21.87;19.40;;;12.30;99.90;;;;;;5113117;28;20532;-68
2021/08/25 06:19:16;;;;;;;20.17;17.77;;;12.30;99.90;;;;;;5112063;28;20666;-68
2021/08/25 06:21:46;;;;;;;19.43;17.50;;;12.40;99.90;;;;;;5113017;28;20461;-68
2021/08/25 06:24:13;;;;;;;20.50;16.63;;;12.50;99.90;;;;;;5112632;28;20532;-68
2021/08/25 06:26:40;;;;;;;22.77;17.90;;;12.60;99.90;;;;;;5113030;28;21047;-68
2021/08/25 06:29:07;;;;;;;19.53;17.53;;;12.70;99.90;;;;;;5111656;28;20449;-68
2021/08/25 06:31:35;;;;;;;19.60;17.57;;;12.80;99.90;;;;;;5112452;28;20556;-68
2021/08/25 06:34:02;;;;;;;20.60;18.40;;;12.80;99.90;;;;;;5112635;28;20492;-68
2021/08/25 06:36:28;;;;;;;18.90;16.90;;;12.80;99.90;;;;;;5111785;28;20840;-69
2021/08/25 06:38:57;;;;;;;18.00;16.20;;;13.00;99.90;;;;;;5111414;28;20449;-68
2021/08/25 06:41:23;;;;;;;18.13;16.30;;;13.10;99.90;;;;;;5112483;28;20837;-68
2021/08/25 06:43:51;;;;;;;16.80;15.00;;;13.10;99.90;;;;;;5112585;28;20502;-68
2021/08/25 06:46:17;;;;;;;17.47;15.67;;;13.20;99.90;;;;;;5112256;28;20495;-68
2021/08/25 06:48:44;;;;;;;18.30;16.40;;;13.30;99.90;;;;;;5112661;28;20533;-68
2021/08/25 06:51:11;;;;;;;17.83;15.90;;;13.30;99.90;;;;;;5111572;28;20469;-68
2021/08/25 06:53:38;;;;;;;17.73;15.83;;;13.40;99.90;;;;;;5112252;28;20469;-68
2021/08/25 06:56:06;;;;;;;18.87;15.60;;;13.40;99.90;;;;;;5112370;28;20517;-68
2021/08/25 06:58:33;;;;;;;17.23;14.60;;;13.50;99.90;;;;;;5112254;28;20445;-69
2021/08/25 07:01:00;;;;;;;16.50;14.80;;;13.60;99.90;;;;;;5111667;28;20473;-68
2021/08/25 07:03:27;;;;;;;16.77;14.83;;;13.70;99.90;;;;;;5112375;28;20510;-68
2021/08/25 07:05:54;;;;;;;15.77;14.27;;;13.80;99.90;;;;;;5112067;28;20463;-68
2021/08/25 07:08:21;;;;;;;18.20;13.20;;;13.90;99.90;;;;;;5112029;28;20441;-68
2021/08/25 07:10:48;;;;;;;15.53;13.97;;;14.00;99.90;;;;;;5110692;28;20544;-69
2021/08/25 07:13:16;;;;;;;17.70;14.00;;;14.10;99.90;;;;;;5111959;28;20473;-68
2021/08/25 07:15:43;;;;;;;14.73;12.70;;;14.10;99.90;;;;;;5111476;28;20884;-68
2021/08/25 07:18:10;;;;;;;15.37;13.80;;;14.30;99.90;;;;;;5111656;28;20479;-68
2021/08/25 07:20:36;;;;;;;14.97;13.47;;;14.30;99.90;;;;;;5110364;28;20461;-68
2021/08/25 07:23:04;;;;;;;15.20;13.60;;;14.40;99.90;;;;;;5111269;28;20449;-68
2021/08/25 07:25:31;;;;;;;15.00;13.50;;;14.50;99.90;;;;;;5110994;28;20441;-68
2021/08/25 07:27:58;;;;;;;14.80;13.33;;;14.60;99.90;;;;;;5111521;28;20447;-68
2021/08/25 07:30:26;;;;;;;14.70;13.17;;;14.80;99.90;;;;;;5110624;28;20445;-69
2021/08/25 07:32:53;;;;;;;13.57;12.23;;;14.90;99.90;;;;;;5111328;28;20469;-69
2021/08/25 07:35:20;;;;;;;14.17;12.87;;;15.00;99.90;;;;;;5110680;28;21045;-68
2021/08/25 07:37:46;;;;;;;15.67;14.07;;;15.10;99.90;;;;;;5111004;28;20927;-68
2021/08/25 07:40:13;;;;;;;14.63;13.00;;;15.20;99.90;;;;;;5110608;28;20454;-68
2021/08/25 07:42:40;;;;;;;16.03;12.47;;;15.20;99.90;;;;;;5107834;28;20461;-69
2021/08/25 07:45:08;;;;;;;13.57;12.17;;;15.40;99.90;;;;;;5110306;28;20438;-69
2021/08/25 07:47:38;;;;;;;14.90;11.80;;;15.50;99.90;;;;;;5106184;28;21017;-69
2021/08/25 07:50:06;;;;;;;12.83;11.53;;;15.60;99.90;;;;;;5109584;28;20963;-69
2021/08/25 07:52:33;;;;;;;12.40;11.20;;;15.70;99.90;;;;;;5110475;28;20499;-68
2021/08/25 07:54:59;;;;;;;13.47;12.17;;;15.90;99.90;;;;;;5110442;28;20473;-68
2021/08/25 07:57:26;;;;;;;14.77;11.77;;;15.90;99.90;;;;;;5108522;28;20464;-67
2021/08/25 07:59:53;;;;;;;12.77;11.53;;;16.00;99.90;;;;;;5107144;27;20440;-69
2021/08/25 08:02:20;;;;;;;13.77;12.30;;;16.10;99.90;;;;;;5118652;27;20435;-69
2021/08/25 08:04:48;;;;;;;12.27;10.97;;;16.20;99.90;;;;;;5115077;27;20205;-68
2021/08/25 08:07:15;;;;;;;13.27;11.90;;;16.30;99.90;;;;;;5120273;27;20550;-70
2021/08/25 08:09:42;;;;;;;12.37;11.27;;;16.50;99.90;;;;;;5110298;28;20529;-74
2021/08/25 08:12:09;;;;;;;12.03;10.40;;;16.60;99.90;;;;;;5108619;28;20572;-69
2021/08/25 08:14:36;;;;;;;11.70;10.60;;;16.80;99.90;;;;;;5110180;28;20477;-68
2021/08/25 08:17:06;;;;;;;11.77;10.67;;;16.80;99.90;;;;;;5110463;28;20891;-68
2021/08/25 08:19:33;;;;;;;13.20;11.47;;;16.80;99.90;;;;;;5109076;28;21276;-69
2021/08/25 08:22:03;;;;;;;10.67;9.57;;;16.80;99.90;;;;;;5110311;28;20974;-68
2021/08/25 08:24:31;;;;;;;11.10;10.00;;;16.80;99.90;;;;;;5110063;28;20445;-69
2021/08/25 08:26:59;;;;;;;12.30;11.07;;;16.90;99.90;;;;;;5110424;28;20469;-68
2021/08/25 08:29:26;;;;;;;10.70;9.70;;;17.00;99.90;;;;;;5109622;28;20448;-68
2021/08/25 08:31:53;;;;;;;10.03;9.03;;;17.20;99.90;;;;;;5110068;28;20473;-69
2021/08/25 08:34:20;;;;;;;12.30;9.97;;;17.20;99.90;;;;;;5106646;28;20469;-68
2021/08/25 08:36:47;;;;;;;10.90;9.40;;;17.40;99.90;;;;;;5107346;28;20884;-68
2021/08/25 08:39:15;;;;;;;8.83;7.73;;;17.60;99.90;;;;;;5109692;28;20473;-67
2021/08/25 08:41:42;;;;;;;9.90;8.90;;;17.80;99.90;;;;;;5109929;28;20467;-67
2021/08/25 08:44:12;;;;;;;9.17;8.10;;;17.80;99.90;;;;;;5109789;28;20448;-67
2021/08/25 08:46:41;;;;;;;11.47;8.30;;;17.80;99.90;;;;;;5110349;28;20463;-67
2021/08/25 08:49:09;;;;;;;10.87;8.33;;;17.80;99.90;;;;;;5109473;28;21301;-69
2021/08/25 08:51:37;;;;;;;9.40;8.37;;;17.80;99.90;;;;;;5110392;28;20469;-66
2021/08/25 08:54:04;;;;;;;9.47;8.57;;;17.90;99.90;;;;;;5109974;28;20500;-66
2021/08/25 08:56:32;;;;;;;9.73;8.20;;;18.00;99.90;;;;;;5109336;28;20970;-66
2021/08/25 08:59:00;;;;;;;8.23;7.23;;;18.10;99.90;;;;;;5111979;28;20547;-69
2021/08/25 09:01:27;;;;;;;9.20;8.30;;;18.20;99.90;;;;;;5119163;27;20586;-68
2021/08/25 09:03:54;;;;;;;9.27;7.70;;;18.30;99.90;;;;;;5116769;28;20442;-68
2021/08/25 09:06:21;;;;;;;8.57;7.67;;;18.50;99.90;;;;;;5116326;28;20447;-68
2021/08/25 09:08:58;;;;;;;11.50;7.20;;;18.60;99.90;;;;;;5109336;28;21037;-68
2021/08/25 09:11:24;;;;;;;23.00;8.80;;;18.90;99.90;;;;;;5115632;28;20471;-67
2021/08/25 09:13:53;;;;;;;9.17;7.40;;;19.00;99.90;;;;;;5112996;28;20473;-68
2021/08/25 09:16:28;;;;;;;18.90;8.43;;;19.00;99.90;;;;;;5106743;28;20448;-69
2021/08/25 09:19:02;;;;;;;10.37;8.00;;;19.10;99.90;;;;;;5110220;28;20447;-67
2021/08/25 09:21:32;;;;;;;9.23;8.33;;;19.30;99.90;;;;;;5111989;27;20864;-68
2021/08/25 09:23:59;;;;;;;9.30;8.33;;;19.40;99.90;;;;;;5118746;28;20436;-67
2021/08/25 09:26:25;;;;;;;7.90;7.10;;;19.20;99.90;;;;;;5109570;28;20449;-67
2021/08/25 09:28:54;;;;;;;10.30;7.70;;;19.20;99.90;;;;;;5116224;28;20440;-67
2021/08/25 09:31:21;;;;;;;8.00;7.20;;;19.30;99.90;;;;;;5110175;28;21374;-67
2021/08/25 09:33:50;;;;;;;6.67;5.80;;;19.40;99.90;;;;;;5109812;28;20523;-67
2021/08/25 09:36:19;;;;;;;6.87;5.67;;;19.60;99.90;;;;;;5115315;28;20524;-66
2021/08/25 09:38:53;;;;;;;6.97;6.27;;;19.50;99.90;;;;;;5108953;28;20737;-66
2021/08/25 09:41:20;;;;;;;6.73;6.03;;;19.30;99.90;;;;;;5108939;28;20614;-67
2021/08/25 09:43:48;;;;;;;6.20;5.30;;;19.50;99.90;;;;;;5107907;28;21456;-67
2021/08/25 09:46:19;;;;;;;9.60;6.20;;;19.90;99.90;;;;;;5104506;28;20455;-66
2021/08/25 09:48:51;;;;;;;6.50;5.70;;;20.30;99.90;;;;;;5112430;28;20488;-68
2021/08/25 09:51:20;;;;;;;5.20;4.57;;;20.60;99.90;;;;;;5113532;28;20551;-68
2021/08/25 09:53:49;;;;;;;6.40;5.03;;;21.10;99.90;;;;;;5103344;28;20442;-66
2021/08/25 09:56:28;;;;;;;6.20;5.20;;;21.80;99.90;;;;;;5098991;28;20531;-69
2021/08/25 09:58:56;;;;;;;5.93;5.00;;;22.20;99.90;;;;;;5104555;28;20444;-68
2021/08/25 10:01:24;;;;;;;6.73;5.40;;;22.10;99.90;;;;;;5112073;27;20504;-67
2021/08/25 10:03:52;;;;;;;6.00;5.27;;;22.10;99.90;;;;;;5111108;28;20448;-68
2021/08/25 10:06:20;;;;;;;6.60;5.60;;;22.60;99.90;;;;;;5109268;28;20524;-67
2021/08/25 10:08:48;;;;;;;5.77;5.17;;;22.20;99.90;;;;;;5109589;28;20528;-68
2021/08/25 10:11:17;;;;;;;6.40;5.80;;;22.40;99.90;;;;;;5109215;28;20556;-67
2021/08/25 10:13:44;;;;;;;6.43;5.03;;;22.70;99.90;;;;;;5113415;28;20487;-68
2021/08/25 10:16:12;;;;;;;8.13;6.17;;;22.20;99.90;;;;;;5112619;28;20434;-67
2021/08/25 10:18:41;;;;;;;6.50;4.90;;;21.70;99.90;;;;;;5112371;28;20830;-67
2021/08/25 10:21:43;;;;;;;5.97;5.27;;;21.30;99.90;;;;;;5111389;28;20476;-67
2021/08/25 10:24:10;;;;;;;7.67;5.40;;;21.00;99.90;;;;;;5113291;28;20864;-67
2021/08/25 10:27:09;;;;;;;5.40;4.47;;;21.50;99.90;;;;;;5112810;28;20449;-69
2021/08/25 10:30:08;;;;;;;6.43;5.37;;;21.10;99.90;;;;;;5069133;28;20937;-68
2021/08/25 10:32:36;;;;;;;7.23;5.37;;;21.00;99.90;;;;;;5112770;28;20464;-68
2021/08/25 10:35:26;;;;;;;6.90;5.70;;;20.90;99.90;;;;;;5111079;28;20568;-67
2021/08/25 10:38:13;;;;;;;5.93;5.17;;;21.00;99.90;;;;;;5111770;28;20437;-67
2021/08/25 10:40:42;;;;;;;7.57;5.37;;;21.40;99.90;;;;;;5110353;28;20456;-67
2021/08/25 10:43:09;;;;;;;6.00;5.40;;;22.40;99.90;;;;;;5112848;28;20441;-66
2021/08/25 10:45:57;;;;;;;6.00;4.93;;;23.10;99.90;;;;;;5111971;28;20451;-67
2021/08/25 10:48:47;;;;;;;5.50;4.97;;;23.30;99.90;;;;;;5112234;28;20499;-67
2021/08/25 10:51:32;;;;;;;5.87;4.43;;;24.00;99.90;;;;;;5114120;27;20470;-67
2021/08/25 10:54:00;;;;;;;7.50;5.23;;;25.00;99.90;;;;;;5120249;27;20437;-69
2021/08/25 10:56:34;;;;;;;6.27;5.67;;;25.70;99.90;;;;;;5124994;27;21029;-67
2021/08/25 10:59:06;;;;;;;6.00;5.07;;;25.90;99.90;;;;;;5093743;27;20456;-68
2021/08/25 11:01:35;;;;;;;6.30;5.20;;;26.50;99.70;;;;;;5124547;27;20488;-69
2021/08/25 11:04:03;;;;;;;5.90;5.27;;;26.00;98.70;;;;;;5111905;28;20954;-69
2021/08/25 11:06:46;;;;;;;6.67;5.20;;;24.80;98.30;;;;;;5111758;28;20456;-69
2021/08/25 11:09:29;;;;;;;7.47;5.30;;;24.50;99.90;;;;;;5113530;27;20451;-69
2021/08/25 11:12:01;;;;;;;6.50;4.97;;;24.50;97.50;;;;;;5105962;27;21037;-69
2021/08/25 11:14:33;;;;;;;7.23;5.10;;;24.40;96.40;;;;;;5110775;27;20497;-68
2021/08/25 11:17:05;;;;;;;6.13;5.43;;;24.60;99.90;;;;;;5102242;27;20457;-78
2021/08/25 11:19:36;;;;;;;5.57;5.03;;;25.40;98.30;;;;;;5102867;27;20983;-70
2021/08/25 11:22:04;;;;;;;5.30;4.63;;;26.20;99.40;;;;;;5113329;27;20465;-69
2021/08/25 11:24:36;;;;;;;8.93;6.00;;;26.40;94.90;;;;;;5105373;28;20453;-68
2021/08/25 11:27:17;;;;;;;7.40;5.00;;;25.80;94.10;;;;;;5097372;28;20439;-68
2021/08/25 11:29:44;;;;;;;5.70;4.80;;;24.90;96.40;;;;;;5098768;28;20441;-68
2021/08/25 11:32:14;;;;;;;7.70;5.80;;;23.70;97.10;;;;;;5098524;28;20485;-68
2021/08/25 11:34:43;;;;;;;8.67;5.60;;;23.70;99.20;;;;;;5097471;28;20492;-69
2021/08/25 11:37:10;;;;;;;7.20;5.20;;;24.40;97.80;;;;;;5099488;28;20444;-69
2021/08/25 11:39:37;;;;;;;7.03;5.57;;;25.20;98.20;;;;;;5098810;28;20979;-69
2021/08/25 11:42:06;;;;;;;8.20;6.10;;;25.60;95.00;;;;;;5099983;28;20747;-68
2021/08/25 11:44:44;;;;;;;6.63;4.77;;;25.50;94.10;;;;;;5109696;28;21105;-69
2021/08/25 11:47:16;;;;;;;11.60;5.90;;;24.80;95.30;;;;;;5110328;28;20426;-72
2021/08/25 11:49:45;;;;;;;7.47;5.00;;;24.30;95.70;;;;;;5105900;28;20794;-69
2021/08/25 11:52:15;;;;;;;7.23;4.90;;;24.50;97.20;;;;;;5110131;28;20465;-71
2021/08/25 11:54:43;;;;;;;6.87;4.77;;;25.80;98.20;;;;;;5110092;28;20520;-70
2021/08/25 11:57:15;;;;;;;5.53;4.77;;;27.70;93.90;;;;;;5109264;28;20502;-69
2021/08/25 11:59:59;;;;;;;7.03;5.80;;;28.50;90.60;;;;;;5109223;28;20501;-69
2021/08/25 12:02:26;;;;;;;5.27;4.37;;;29.10;90.30;;;;;;5109198;28;20544;-68
2021/08/25 12:04:53;;;;;;;6.07;5.13;;;28.40;90.50;;;;;;5110464;28;20884;-71
2021/08/25 12:07:20;;;;;;;8.10;4.47;;;28.60;86.90;;;;;;5110721;28;20536;-69
2021/08/25 12:09:47;;;;;;;8.87;5.70;;;27.50;87.40;;;;;;5110121;28;20926;-69
2021/08/25 12:12:15;;;;;;;5.30;4.80;;;26.20;91.30;;;;;;5107087;28;20461;-70
2021/08/25 12:14:56;;;;;;;6.27;4.80;;;26.10;92.30;;;;;;5109863;28;20488;-69
2021/08/25 12:17:23;;;;;;;6.40;5.37;;;25.50;93.90;;;;;;5110525;28;20481;-69
2021/08/25 12:19:57;;;;;;;14.30;5.67;;;26.60;93.90;;;;;;5109383;28;20544;-69
2021/08/25 12:22:26;;;;;;;6.60;5.90;;;27.50;90.10;;;;;;5107784;28;20476;-68
2021/08/25 12:24:53;;;;;;;10.17;5.00;;;26.10;87.30;;;;;;5098765;28;20437;-68
2021/08/25 12:27:22;;;;;;;9.63;5.67;;;25.50;92.20;;;;;;5097806;28;20441;-69
2021/08/25 12:29:49;;;;;;;10.20;5.57;;;25.20;91.90;;;;;;5094102;28;20534;-69
2021/08/25 12:32:17;;;;;;;17.97;6.77;;;25.50;91.40;;;;;;5102613;28;20464;-68
2021/08/25 12:35:00;;;;;;;6.70;5.70;;;25.90;91.60;;;;;;5106400;28;20524;-69
2021/08/25 12:37:52;;;;;;;6.00;5.10;;;26.70;91.00;;;;;;5103138;28;20449;-69
2021/08/25 12:40:22;;;;;;;6.40;5.53;;;26.90;92.40;;;;;;5108859;28;20429;-70